Latest Weather Observations for Khancoban

IDN60801

Issued at 10:33 am EDT Wednesday 1 April 2015 (issued every 30 minutes, with the page automatically refreshed every 10 minutes)

About weather observations | Map of weather stations | Latest weather observations for NSW | Other Formats
Station Details ID: 072162 Name: KHANCOBAN AWS Lat: -36.23 Lon: 148.14 Height: 339.3 m
Data from the previous 72 hours. | See also: Recent months at Khancoban
Date/Time
EDT
Temp
°C
App
Temp
°C
Dew
Point
Rel
Hum
%
Delta-T
°C
Wind Press
QNH
hPa
Press
MSL
hPa
Rain
since 9 am
mm
Dir
 
Spd
km/h
Gust
km/h
Spd
kts
Gust
kts
01/10:30am 17.8 16.5 7.8 52 5.1 NNW 4 9 2 5 1024.3 1023.4 0.0
01/10:00am 15.6 14.4 8.1 61 3.8 N 4 7 2 4 1024.8 1023.8 0.0
01/09:30am 13.3 12.9 8.4 72 2.5 CALM 0 0 0 0 1025.0 1024.0 0.0
01/09:00am 11.2 9.9 9.3 88 1.0 NE 6 6 3 3 1025.1 1024.1 0.0
01/08:30am 10.2 10.1 9.4 95 0.4 CALM 0 4 0 2 1024.8 1023.8 0.0
01/08:00am 8.9 8.5 8.1 95 0.4 CALM 0 0 0 0 1024.4 1023.5 0.0
01/07:30am 8.6 8.2 8.2 97 0.2 CALM 0 0 0 0 1024.3 1023.4 0.0
01/07:00am 8.9 8.3 7.4 90 0.7 CALM 0 0 0 0 1024.1 1023.2 0.0
01/06:30am 8.6 6.9 7.4 92 0.6 S 6 7 3 4 1024.2 1023.3 0.0
01/06:00am 9.6 9.1 7.7 88 0.9 CALM 0 0 0 0 1024.2 1023.3 0.0
01/05:30am 9.3 8.3 7.4 88 0.9 ENE 2 7 1 4 1023.9 1022.9 0.0
01/05:00am 10.1 9.7 8.2 88 0.9 CALM 0 6 0 3 1023.8 1022.8 0.0
01/04:30am 10.0 9.5 7.8 86 1.1 CALM 0 0 0 0 1023.8 1022.8 0.0
01/04:00am 10.4 9.5 7.8 84 1.3 SSE 2 6 1 3 1024.0 1023.1 0.0
01/03:30am 11.1 10.0 8.5 84 1.3 SSE 4 7 2 4 1024.2 1023.3 0.0
01/03:00am 10.3 8.5 7.2 81 1.5 NNE 6 7 3 4 1024.4 1023.5 0.0
01/02:30am 10.5 9.5 7.4 81 1.5 NE 2 6 1 3 1024.8 1023.8 0.0
01/02:00am 10.8 10.3 7.7 81 1.5 CALM 0 0 0 0 1025.0 1024.0 0.0
01/01:30am 11.4 10.7 7.1 75 2.1 CALM 0 0 0 0 1025.1 1024.1 0.0
01/01:00am 11.9 11.4 7.8 76 2.0 CALM 0 0 0 0 1025.0 1024.0 0.0
01/12:30am 12.9 12.4 8.0 72 2.5 CALM 0 0 0 0 1025.2 1024.2 0.0
01/12:00am 12.7 11.9 8.2 74 2.3 N 2 7 1 4 1025.1 1024.1 0.0
 
Date/Time
EDT
Temp
°C
App
Temp
°C
Dew
Point
Rel
Hum
%
Delta-T
°C
Wind Press
QNH
hPa
Press
MSL
hPa
Rain
since 9 am
mm
Dir
 
Spd
km/h
Gust
km/h
Spd
kts
Gust
kts
31/11:30pm 13.2 12.6 7.6 69 2.8 CALM 0 0 0 0 1024.9 1023.9 0.0
31/11:00pm 14.1 12.9 8.1 67 3.0 NW 4 6 2 3 1024.6 1023.6 0.0
31/10:30pm 13.5 12.8 6.8 64 3.3 CALM 0 0 0 0 1024.3 1023.4 0.0
31/10:00pm 15.5 14.8 8.5 63 3.6 NE 2 6 1 3 1024.2 1023.3 0.0
31/09:30pm 14.7 13.9 8.2 65 3.3 NE 2 7 1 4 1023.9 1022.9 0.0
31/09:00pm 16.2 15.6 8.9 62 3.8 W 2 9 1 5 1023.8 1022.8 0.0
31/08:30pm 17.0 15.8 8.2 56 4.6 W 4 6 2 3 1023.7 1022.7 0.0
31/08:00pm 17.6 15.9 8.2 54 4.9 NNE 7 9 4 5 1023.7 1022.7 0.0
31/07:30pm 18.9 17.6 7.7 48 5.8 SW 4 7 2 4 1023.3 1022.3 0.0
31/07:00pm 21.6 19.8 7.1 39 7.5 N 6 9 3 5 1023.0 1022.0 0.0
31/06:30pm 23.8 22.1 8.2 37 8.4 WSW 7 11 4 6 1022.6 1021.6 0.0
31/06:00pm 26.5 24.4 6.5 28 10.6 S 7 9 4 5 1022.5 1021.5 0.0
31/05:30pm 27.2 24.6 6.0 26 11.2 SSW 9 13 5 7 1022.4 1021.4 0.0
31/05:00pm 27.4 25.3 5.6 25 11.4 WSW 6 13 3 7 1022.4 1021.4 0.0
31/04:30pm 27.7 25.1 5.9 25 11.5 S 9 13 5 7 1022.5 1021.5 0.0
31/04:00pm 27.5 25.2 5.7 25 11.4 W 7 15 4 8 1022.8 1021.8 0.0
31/03:30pm 26.8 24.4 5.1 25 11.3 WSW 7 15 4 8 1023.2 1022.2 0.0
31/03:00pm 26.9 24.1 5.2 25 11.3 W 9 15 5 8 1023.8 1022.8 0.0
31/02:30pm 26.0 23.1 4.5 25 11.0 NNW 9 19 5 10 1024.3 1023.4 0.0
31/02:00pm 25.6 22.7 4.7 26 10.7 NE 9 15 5 8 1025.1 1024.1 0.0
31/01:30pm 24.9 21.9 4.1 26 10.5 N 9 17 5 9 1025.6 1024.6 0.0
31/01:00pm 24.0 21.8 6.3 32 9.2 W 7 13 4 7 1026.2 1025.2 0.0
31/12:30pm 23.0 20.7 5.0 31 9.1 NW 6 9 3 5 1026.7 1025.8 0.0
31/12:00pm 22.2 21.1 8.3 41 7.4 NNE 4 9 2 5 1027.1 1026.2 0.0
31/11:30am 20.3 18.7 8.0 45 6.5 NNW 6 11 3 6 1027.7 1026.7 0.0
31/11:00am 18.8 16.6 7.9 49 5.6 NNW 9 13 5 7 1028.0 1027.0 0.0
31/10:30am 17.0 16.3 6.8 51 5.1 CALM 0 6 0 3 1028.2 1027.2 0.0
31/10:00am 14.6 14.0 7.2 61 3.7 CALM 0 0 0 0 1028.4 1027.4 0.0
31/09:30am 12.6 12.2 8.1 74 2.3 CALM 0 0 0 0 1028.6 1027.6 0.0
31/09:00am 10.8 10.3 7.9 82 1.4 CALM 0 0 0 0 1028.4 1027.4 0.0
31/08:30am 9.1 8.8 8.6 97 0.2 CALM 0 0 0 0 1028.0 1027.0 0.0
31/08:00am 6.6 5.8 6.5 99 0.0 CALM 0 0 0 0 1027.5 1026.6 0.0
31/07:30am 6.7 5.9 6.4 98 0.1 CALM 0 0 0 0 1027.1 1026.2 0.0
31/07:00am 6.9 6.0 6.0 94 0.4 CALM 0 0 0 0 1026.9 1026.0 0.0
31/06:30am 7.1 6.3 6.4 95 0.3 CALM 0 0 0 0 1026.6 1025.7 0.0
31/06:00am 7.3 6.3 5.6 89 0.8 CALM 0 0 0 0 1026.3 1025.3 0.0
31/05:30am 7.9 6.0 6.7 92 0.6 S 6 9 3 5 1026.2 1025.2 0.0
31/05:00am 8.3 7.5 6.6 89 0.8 CALM 0 0 0 0 1026.1 1025.1 0.0
31/04:30am 8.6 7.8 6.7 88 0.9 CALM 0 0 0 0 1026.1 1025.1 0.0
31/04:00am 8.4 7.4 5.7 83 1.2 CALM 0 0 0 0 1026.1 1025.1 0.0
31/03:30am 9.2 8.5 7.0 86 1.1 CALM 0 0 0 0 1026.3 1025.3 0.0
31/03:00am 9.2 8.5 7.0 86 1.0 CALM 0 0 0 0 1026.3 1025.3 0.0
31/02:30am 9.3 8.5 6.6 83 1.3 CALM 0 2 0 1 1026.5 1025.5 0.0
31/02:00am 9.4 8.1 5.9 79 1.6 SE 2 9 1 5 1026.5 1025.5 0.0
31/01:30am 10.3 9.5 6.6 78 1.8 CALM 0 2 0 1 1026.3 1025.3 0.0
31/01:00am 10.3 9.5 6.3 76 1.9 CALM 0 0 0 0 1025.8 1024.8 0.0
31/12:30am 11.4 9.5 6.7 73 2.3 NE 6 9 3 5 1025.8 1024.8 0.0
31/12:00am 10.9 10.1 6.3 73 2.2 CALM 0 0 0 0 1025.8 1024.8 0.0
 
Date/Time
EDT
Temp
°C
App
Temp
°C
Dew
Point
Rel
Hum
%
Delta-T
°C
Wind Press
QNH
hPa
Press
MSL
hPa
Rain
since 9 am
mm
Dir
 
Spd
km/h
Gust
km/h
Spd
kts
Gust
kts
30/11:30pm 11.4 9.7 6.1 70 2.5 NNW 4 9 2 5 1025.8 1024.8 0.0
30/11:00pm 12.5 10.1 6.8 68 2.8 SSE 9 11 5 6 1025.8 1024.8 0.0
30/10:30pm 13.0 11.0 7.0 67 3.0 SE 7 13 4 7 1025.7 1024.7 0.0
30/10:00pm 12.9 11.7 6.5 65 3.1 S 2 6 1 3 1025.7 1024.7 0.0
30/09:30pm 13.6 11.9 6.0 60 3.7 NNE 4 7 2 4 1025.3 1024.3 0.0
30/09:00pm 14.5 13.9 7.3 62 3.6 CALM 0 0 0 0 1025.1 1024.1 0.0
30/08:30pm 15.5 13.7 7.3 58 4.1 NW 6 7 3 4 1024.8 1023.8 0.0
30/08:00pm 15.8 15.0 6.3 53 4.7 CALM 0 0 0 0 1024.3 1023.4 0.0
30/07:30pm 17.2 15.7 7.0 51 5.2 SSW 4 7 2 4 1023.9 1022.9 0.0
30/07:00pm 19.6 17.8 7.0 44 6.5 SSW 6 9 3 5 1023.5 1022.5 0.0
30/06:30pm 22.8 22.0 6.6 35 8.4 CALM 0 4 0 2 1023.1 1022.1 0.0
30/06:00pm 23.8 21.2 4.2 28 9.8 NNW 7 9 4 5 1022.8 1021.8 0.0
30/05:30pm 24.1 21.5 4.0 27 10.1 NNW 7 9 4 5 1022.6 1021.6 0.0
30/05:00pm 24.2 22.8 3.5 26 10.2 CALM 0 6 0 3 1022.5 1021.5 0.0
30/04:30pm 24.6 22.1 3.8 26 10.4 SE 6 9 3 5 1022.5 1021.5 0.0
30/04:00pm 24.8 22.3 4.0 26 10.4 ESE 6 9 3 5 1022.7 1021.7 0.0
30/03:30pm 25.0 22.3 3.6 25 10.7 ENE 7 13 4 7 1023.0 1022.0 0.0
30/03:00pm 23.7 20.5 3.1 26 10.1 S 9 17 5 9 1023.2 1022.2 0.0
30/02:30pm 23.6 20.9 3.5 27 9.9 N 7 17 4 9 1023.4 1022.4 0.0
30/02:00pm 23.6 20.3 4.5 29 9.6 NNW 11 15 6 8 1023.8 1022.8 0.0
30/01:30pm 22.7 19.3 4.2 30 9.2 WNW 11 22 6 12 1024.2 1023.3 0.0
30/01:00pm 22.8 20.3 4.8 31 9.0 N 7 13 4 7 1024.8 1023.8 0.0
30/12:30pm 21.7 19.3 4.3 32 8.6 W 6 9 3 5 1025.4 1024.4 0.0
30/12:00pm 19.8 17.7 5.8 40 7.0 SSW 6 9 3 5 1025.8 1024.8 0.0
30/11:30am 18.2 16.5 5.8 44 6.2 NNE 4 7 2 4 1026.4 1025.4 0.0
30/11:00am 15.3 13.2 5.8 53 4.6 N 6 9 3 5 1026.7 1025.8 0.0
30/10:30am 12.9 12.1 6.5 65 3.1 CALM 0 0 0 0 1027.0 1026.1 0.0
30/10:00am 11.4 10.7 7.1 75 2.1 CALM 0 6 0 3 1027.1 1026.2 0.0
30/09:30am 9.7 9.0 7.1 84 1.3 CALM 0 0 0 0 1027.0 1026.1 0.0
30/09:00am 7.3 5.2 6.6 95 0.3 NNE 7 9 4 5 1026.8 1025.9 0.0
30/08:30am 6.5 4.8 6.1 97 0.2 SSE 4 7 2 4 1026.5 1025.5 0.0
30/08:00am 6.6 4.5 6.0 96 0.3 NE 6 7 3 4 1026.1 1025.1 0.0
30/07:30am 6.3 5.0 5.9 97 0.2 SSW 2 7 1 4 1025.9 1024.9 0.0
30/07:00am 6.2 5.1 5.2 93 0.4 CALM 0 0 0 0 1025.4 1024.4 0.0
30/06:30am 6.4 4.9 5.2 92 0.5 NNE 2 9 1 5 1025.0 1024.0 0.0
30/06:00am 6.8 5.8 5.4 91 0.6 CALM 0 0 0 0 1024.4 1023.5 0.0
30/05:30am 7.8 6.8 5.4 85 1.1 CALM 0 0 0 0 1024.2 1023.3 0.0
30/05:00am 7.1 5.2 5.1 87 0.9 NNE 4 7 2 4 1023.9 1022.9 0.0
30/04:30am 8.0 5.9 5.6 85 1.1 S 6 7 3 4 1023.8 1022.8 0.0
30/04:00am 8.1 7.1 5.6 84 1.1 CALM 0 0 0 0 1023.8 1022.8 0.0
30/03:30am 7.9 6.4 5.2 83 1.2 NE 2 6 1 3 1023.9 1022.9 0.0
30/03:00am 8.4 7.4 5.7 83 1.2 CALM 0 6 0 3 1024.0 1023.1 0.0
30/02:30am 9.1 7.8 6.0 81 1.4 SE 2 6 1 3 1024.4 1023.5 0.0
30/02:00am 9.2 8.2 5.8 79 1.6 CALM 0 2 0 1 1024.6 1023.6 0.0
30/01:30am 8.9 7.1 5.3 78 1.7 SSE 4 9 2 5 1024.6 1023.6 0.0
30/01:00am 9.6 8.6 5.4 75 1.9 CALM 0 2 0 1 1024.3 1023.4 0.0
30/12:30am 9.6 8.6 5.4 75 1.9 CALM 0 0 0 0 1024.4 1023.5 0.0
30/12:00am 10.8 9.5 5.8 71 2.3 ENE 2 6 1 3 1024.6 1023.6 0.0
 
Date/Time
EDT
Temp
°C
App
Temp
°C
Dew
Point
Rel
Hum
%
Delta-T
°C
Wind Press
QNH
hPa
Press
MSL
hPa
Rain
since 9 am
mm
Dir
 
Spd
km/h
Gust
km/h
Spd
kts
Gust
kts
29/11:30pm 10.4 9.3 5.2 70 2.4 CALM 0 0 0 0 1024.4 1023.5 0.0
29/11:00pm 10.8 9.7 5.1 68 2.6 CALM 0 0 0 0 1024.3 1023.4 0.0
29/10:30pm 11.3 10.3 5.6 68 2.7 CALM 0 0 0 0 1024.4 1023.5 0.0
29/10:00pm 11.7 10.3 5.3 65 3.0 NE 2 7 1 4 1024.3 1023.4 0.0
29/09:30pm 11.9 10.3 4.6 61 3.4 SSE 2 6 1 3 1024.0 1023.1 0.0
29/09:00pm 13.4 11.5 4.8 56 4.0 S 4 7 2 4 1023.5 1022.5 0.0
29/08:30pm 14.1 11.9 5.2 55 4.3 ENE 6 11 3 6 1022.9 1021.9 0.0
29/08:00pm 15.1 12.7 4.2 48 5.1 S 6 7 3 4 1022.4 1021.4 0.0
29/07:30pm 16.2 14.0 5.5 49 5.2 S 6 9 3 5 1022.1 1021.1 0.0
29/07:00pm 18.7 17.3 3.3 36 7.3 CALM 0 7 0 4 1021.6 1020.6 0.0
29/06:30pm 22.7 21.0 1.7 25 10.0 CALM 0 0 0 0 1021.1 1020.1 0.0
29/06:00pm 23.6 20.8 1.9 24 10.4 NW 6 11 3 6 1021.0 1020.0 0.0
29/05:30pm 24.4 20.5 1.3 22 11.0 NW 11 17 6 9 1020.9 1019.9 0.0
29/05:00pm 24.6 21.2 2.1 23 10.9 WSW 9 17 5 9 1020.8 1019.8 0.0
29/04:30pm 25.0 20.2 2.4 23 11.1 WNW 17 24 9 13 1020.9 1019.9 0.0
29/04:00pm 24.3 20.0 1.2 22 11.0 WNW 13 17 7 9 1021.1 1020.1 0.0
29/03:30pm 23.9 20.3 0.9 22 10.9 WNW 9 17 5 9 1021.3 1020.3 0.0
29/03:00pm 24.0 20.1 1.0 22 10.8 NW 11 19 6 10 1021.9 1020.9 0.0
29/02:30pm 23.4 18.9 -0.1 21 10.8 WNW 13 20 7 11 1022.3 1021.3 0.0
29/02:00pm 23.8 19.7 -0.5 20 11.1 WNW 11 19 6 10 1022.6 1021.6 0.0
29/01:30pm 22.3 19.4 1.3 25 9.9 NW 6 13 3 7 1022.9 1021.9 0.0
29/01:00pm 21.5 18.5 2.2 28 9.1 NNW 7 13 4 7 1023.4 1022.4 0.0
29/12:30pm 19.7 17.1 3.0 33 8.0 WNW 6 13 3 7 1024.0 1023.1 0.0
29/12:00pm 18.7 15.9 3.3 36 7.3 SW 7 13 4 7 1024.4 1023.5 0.0
29/11:30am 17.6 15.6 4.5 42 6.3 W 4 7 2 4 1024.9 1023.9 0.0
29/11:00am 15.2 12.7 3.7 46 5.3 WNW 6 9 3 5 1025.2 1024.2 0.0

Other Formats:

Comma delimited format used in spreadsheet applications
http://www.bom.gov.au/fwo/IDN60801/IDN60801.94919.axf

JavaScript Object Notation format (JSON) in row-major order
http://www.bom.gov.au/fwo/IDN60801/IDN60801.94919.json